SVVA/VLN METAR and TAF weather

Enter ICAO airport designator
Station Type Date Time Source
SVVA METAR 2022/11/30 23:00 UTC NOAA

SVVA 302300Z /////KT 9999 OVC016 27/19 Q1015


Station Type Date Time Source
SVVA Decoded METAR 2022/11/30 23:00 UTC NOAA

Valencia, Venezuela (SVVA) 10-10N 067-56W 431M
Nov 30, 2022 - 06:00 PM EST / 2022.11.30 2300 UTC
Visibility: greater than 7 mile(s):0
Sky conditions: overcast
Temperature: 80 F (27 C)
Dew Point: 66 F (19 C)
Relative Humidity: 61%
Pressure (altimeter): 29.97 in. Hg (1015 hPa)
ob: SVVA 302300Z /////KT 9999 OVC016 27/19 Q1015
cycle: 23

Station Type Date Time Source
SVVA TAF 2022/11/29 12:09 UTC NOAA

TAF TAF SVVA 291100Z 2912/3012 02001KT 9999 SCT016 SCT080 TX30/2919Z TN21/3009Z
TEMPO 2914/2918 12004KT 9999 SCT016
TEMPO 2922/3002 09002KT 9999 SCT016 BKN100

Example: see airport list